createdAt,value
2022-10-20T00:02:16.718Z,2.20
2022-10-20T00:04:44.603Z,2.20
2022-10-20T00:07:12.493Z,2.10
2022-10-20T00:09:40.427Z,2.30
2022-10-20T00:12:08.278Z,2.78
2022-10-20T00:14:36.019Z,2.13
2022-10-20T00:17:05.878Z,2.20
2022-10-20T00:19:34.117Z,2.25
2022-10-20T00:22:02.148Z,2.60
2022-10-20T00:24:29.985Z,2.40
2022-10-20T00:26:57.706Z,2.35
2022-10-20T00:29:25.622Z,2.13
2022-10-20T00:31:53.473Z,2.10
2022-10-20T00:34:21.185Z,2.28
2022-10-20T00:36:51.325Z,2.15
2022-10-20T00:39:19.558Z,2.28
2022-10-20T00:41:47.480Z,2.33
2022-10-20T00:44:54.247Z,2.40
2022-10-20T00:50:15.091Z,2.10
2022-10-20T00:52:45.968Z,1.92
2022-10-20T00:55:16.916Z,2.03
2022-10-20T00:57:47.297Z,2.30
2022-10-20T01:00:15.997Z,1.92
2022-10-20T01:02:44.524Z,2.17
2022-10-20T01:05:13.060Z,2.30
2022-10-20T01:07:41.132Z,2.03
2022-10-20T01:10:10.524Z,2.25
2022-10-20T01:12:50.484Z,2.15
2022-10-20T01:15:47.143Z,2.20
2022-10-20T01:18:33.758Z,1.90
2022-10-20T01:21:27.087Z,1.95
2022-10-20T01:24:04.558Z,1.95
2022-10-20T01:27:17.814Z,2.00
2022-10-20T01:30:06.313Z,1.98
2022-10-20T01:32:39.273Z,1.98
2022-10-20T01:35:42.345Z,2.17
2022-10-20T01:38:19.407Z,2.40
2022-10-20T01:41:14.519Z,2.58
2022-10-20T01:43:43.606Z,2.60
2022-10-20T01:46:12.460Z,2.72
2022-10-20T01:48:40.968Z,2.50
2022-10-20T01:51:10.088Z,2.28
2022-10-20T01:53:38.116Z,2.30
2022-10-20T01:56:06.461Z,2.38
2022-10-20T01:58:46.382Z,2.38
2022-10-20T02:01:24.968Z,2.42
2022-10-20T02:03:58.583Z,2.65
2022-10-20T02:06:37.304Z,2.65
2022-10-20T02:09:07.884Z,2.33
2022-10-20T02:11:59.098Z,2.08
2022-10-20T02:14:27.297Z,2.70
2022-10-20T02:17:05.958Z,2.28
2022-10-20T02:19:37.154Z,2.03
2022-10-20T02:22:05.785Z,1.85
2022-10-20T02:24:37.056Z,1.83
2022-10-20T02:27:26.653Z,2.35
2022-10-20T02:30:07.196Z,2.13
2022-10-20T02:32:37.312Z,2.38
2022-10-20T02:35:07.743Z,2.20
2022-10-20T02:37:35.949Z,2.22
2022-10-20T02:40:05.133Z,2.20
2022-10-20T02:42:33.150Z,2.40
2022-10-20T02:45:01.082Z,2.38
2022-10-20T02:47:28.903Z,2.08
2022-10-20T02:49:56.663Z,1.88
2022-10-20T02:52:24.557Z,2.03
2022-10-20T02:54:52.551Z,2.20
2022-10-20T02:57:20.503Z,2.10
2022-10-20T02:59:48.520Z,2.10
2022-10-20T03:02:16.298Z,2.47
2022-10-20T03:04:44.225Z,2.05
2022-10-20T03:07:12.275Z,2.10
2022-10-20T03:09:40.289Z,2.10
2022-10-20T03:12:08.215Z,2.15
2022-10-20T03:14:35.968Z,2.10
2022-10-20T03:17:03.871Z,2.28
2022-10-20T03:19:31.832Z,2.13
2022-10-20T03:21:59.591Z,2.42
2022-10-20T03:24:27.299Z,2.03
2022-10-20T03:26:59.238Z,2.20
2022-10-20T03:29:27.284Z,2.10
2022-10-20T03:31:55.178Z,2.38
2022-10-20T03:34:23.322Z,2.72
2022-10-20T03:36:51.213Z,2.03
2022-10-20T03:39:19.199Z,2.10
2022-10-20T03:41:46.894Z,2.30
2022-10-20T03:44:14.717Z,2.08
2022-10-20T03:46:42.604Z,2.00
2022-10-20T03:49:10.439Z,1.75
2022-10-20T03:51:38.299Z,1.60
2022-10-20T03:54:06.072Z,1.60
2022-10-20T03:56:34.033Z,1.60
2022-10-20T04:01:33.612Z,1.75
2022-10-20T04:06:32.937Z,1.90
2022-10-20T04:09:00.644Z,2.10
2022-10-20T04:11:28.721Z,2.03
2022-10-20T04:13:56.611Z,1.67
2022-10-20T04:16:24.787Z,2.13
2022-10-20T04:18:53.510Z,1.80
2022-10-20T04:21:21.618Z,2.33
2022-10-20T04:23:49.491Z,2.25
2022-10-20T04:26:17.670Z,2.65
2022-10-20T04:28:45.613Z,2.08
2022-10-20T04:31:13.429Z,2.20
2022-10-20T04:33:41.320Z,2.10
2022-10-20T04:36:13.245Z,2.10
2022-10-20T04:38:40.953Z,2.70
2022-10-20T04:41:10.289Z,2.35
2022-10-20T04:43:38.194Z,2.30
2022-10-20T04:46:08.490Z,2.97
2022-10-20T04:48:37.533Z,2.30
2022-10-20T04:51:11.055Z,2.40
2022-10-20T04:53:39.372Z,2.50
2022-10-20T04:56:09.063Z,2.80
2022-10-20T04:58:37.264Z,2.38
2022-10-20T05:01:07.392Z,2.80
2022-10-20T05:03:36.392Z,2.72
2022-10-20T05:06:16.418Z,2.58
2022-10-20T05:08:46.816Z,2.63
2022-10-20T05:11:16.225Z,3.00
2022-10-20T05:13:44.260Z,2.55
2022-10-20T05:16:12.917Z,3.03
2022-10-20T05:18:41.611Z,2.85
2022-10-20T05:21:18.005Z,3.00
2022-10-20T05:23:46.740Z,3.08
2022-10-20T05:26:17.169Z,3.20
2022-10-20T05:28:47.397Z,3.38
2022-10-20T05:31:16.127Z,3.17
2022-10-20T05:33:49.012Z,3.38
2022-10-20T05:36:21.471Z,3.63
2022-10-20T05:38:52.289Z,3.40
2022-10-20T05:41:22.414Z,3.30
2022-10-20T05:43:57.455Z,3.25
2022-10-20T05:46:26.722Z,3.20
2022-10-20T05:48:57.280Z,3.17
2022-10-20T05:51:27.669Z,3.33
2022-10-20T05:53:59.625Z,3.15
2022-10-20T05:56:28.827Z,3.25
2022-10-20T05:58:57.483Z,3.45
2022-10-20T06:01:27.751Z,3.13
2022-10-20T06:04:00.242Z,3.25
2022-10-20T06:06:30.511Z,3.63
2022-10-20T06:09:00.632Z,3.63
2022-10-20T06:11:29.704Z,3.70
2022-10-20T06:13:57.772Z,3.60
2022-10-20T06:16:26.671Z,3.33
2022-10-20T06:18:55.106Z,3.53
2022-10-20T06:21:25.092Z,3.50
2022-10-20T06:23:53.571Z,3.15
2022-10-20T06:26:23.934Z,3.47
2022-10-20T06:28:59.837Z,3.42
2022-10-20T06:31:36.431Z,3.40
2022-10-20T06:34:06.471Z,3.42
2022-10-20T06:36:38.563Z,3.53
2022-10-20T06:39:08.116Z,3.40
2022-10-20T06:41:36.637Z,3.85
2022-10-20T06:44:04.829Z,3.00
2022-10-20T06:46:35.446Z,3.30
2022-10-20T06:49:05.663Z,3.17
2022-10-20T06:51:34.806Z,3.38
2022-10-20T06:54:02.796Z,3.20
2022-10-20T06:56:33.076Z,2.92
2022-10-20T06:59:01.865Z,2.83
2022-10-20T07:01:35.579Z,3.28
2022-10-20T07:04:06.096Z,3.28
2022-10-20T07:06:38.989Z,3.20
2022-10-20T07:09:09.346Z,3.38
2022-10-20T07:11:37.307Z,3.58
2022-10-20T07:14:05.696Z,3.33
2022-10-20T07:16:35.387Z,3.42
2022-10-20T07:19:04.207Z,3.28
2022-10-20T07:21:35.831Z,3.00
2022-10-20T07:24:07.149Z,3.15
2022-10-20T07:26:37.410Z,3.03
2022-10-20T07:29:05.623Z,3.40
2022-10-20T07:31:39.309Z,3.03
2022-10-20T07:34:26.448Z,3.92
2022-10-20T07:36:56.127Z,3.10
2022-10-20T07:39:24.593Z,3.28
2022-10-20T07:41:52.622Z,3.63
2022-10-20T07:44:20.784Z,3.42
2022-10-20T07:46:48.829Z,3.58
2022-10-20T07:52:04.886Z,3.60
2022-10-20T07:54:32.821Z,2.72
2022-10-20T07:57:00.508Z,3.97
2022-10-20T07:59:29.728Z,3.38
2022-10-20T08:01:59.691Z,3.33
2022-10-20T08:04:28.256Z,3.55
2022-10-20T08:06:56.165Z,3.50
2022-10-20T08:09:24.117Z,3.80
2022-10-20T08:11:55.320Z,3.63
2022-10-20T08:14:27.278Z,3.42
2022-10-20T08:16:58.873Z,3.67
2022-10-20T08:19:29.091Z,4.00
2022-10-20T08:21:57.082Z,3.40
2022-10-20T08:24:24.868Z,3.50
2022-10-20T08:26:52.650Z,3.78
2022-10-20T08:29:20.547Z,4.13
2022-10-20T08:31:48.566Z,3.80
2022-10-20T08:34:16.373Z,3.85
2022-10-20T08:36:44.204Z,3.63
2022-10-20T08:39:11.921Z,3.38
2022-10-20T08:44:35.540Z,3.58
2022-10-20T08:47:05.652Z,4.05
2022-10-20T08:49:35.234Z,4.22
2022-10-20T08:52:04.024Z,3.08
2022-10-20T08:54:33.626Z,3.10
2022-10-20T08:57:01.554Z,3.08
2022-10-20T08:59:34.337Z,3.28
2022-10-20T09:02:04.040Z,2.70
2022-10-20T09:04:36.004Z,2.92
2022-10-20T09:07:30.776Z,2.83
2022-10-20T09:10:23.722Z,2.25
2022-10-20T09:12:52.443Z,2.80
2022-10-20T09:15:21.533Z,2.55
2022-10-20T09:18:01.232Z,2.30
2022-10-20T09:20:35.308Z,3.03
2022-10-20T09:23:07.746Z,2.88
2022-10-20T09:25:45.821Z,2.70
2022-10-20T09:28:34.796Z,3.33
2022-10-20T09:31:33.052Z,3.15
2022-10-20T09:34:01.070Z,3.03
2022-10-20T09:36:31.917Z,2.90
2022-10-20T09:39:00.314Z,3.45
2022-10-20T09:41:31.730Z,3.53
2022-10-20T09:44:17.193Z,2.97
2022-10-20T09:46:51.795Z,3.70
2022-10-20T09:49:31.665Z,2.72
2022-10-20T09:52:01.929Z,2.95
2022-10-20T09:54:30.384Z,2.90
2022-10-20T09:57:06.579Z,2.67
2022-10-20T09:59:36.758Z,2.47
2022-10-20T10:02:16.966Z,2.70
2022-10-20T10:04:49.727Z,2.90
2022-10-20T10:07:27.429Z,4.50
2022-10-20T10:10:07.310Z,3.47
2022-10-20T10:12:36.702Z,2.92
2022-10-20T10:15:07.683Z,2.63
2022-10-20T10:17:40.627Z,3.38
2022-10-20T10:20:35.610Z,3.30
2022-10-20T10:23:26.795Z,3.67
2022-10-20T10:25:59.162Z,3.90
2022-10-20T10:28:31.378Z,3.30
2022-10-20T10:31:17.262Z,2.63
2022-10-20T10:33:45.002Z,2.30
2022-10-20T10:36:21.943Z,2.67
2022-10-20T10:38:49.681Z,2.65
2022-10-20T10:41:42.477Z,3.47
2022-10-20T10:44:36.638Z,3.95
2022-10-20T10:47:16.988Z,2.50
2022-10-20T10:49:50.406Z,2.50
2022-10-20T10:52:24.497Z,2.45
2022-10-20T10:55:21.273Z,4.07
2022-10-20T10:58:48.788Z,2.15
2022-10-20T11:01:25.179Z,2.88
2022-10-20T11:04:08.267Z,1.77
2022-10-20T11:06:54.188Z,2.00
2022-10-20T11:09:39.145Z,2.00
2022-10-20T11:12:19.027Z,2.13
2022-10-20T11:15:15.778Z,1.90
2022-10-20T11:17:52.309Z,1.73
2022-10-20T11:20:27.869Z,2.55
2022-10-20T11:23:16.557Z,2.25
2022-10-20T11:25:55.228Z,2.03
2022-10-20T11:28:46.105Z,2.70
2022-10-20T11:31:29.684Z,1.90
2022-10-20T11:34:31.036Z,2.00
2022-10-20T11:37:27.105Z,1.98
2022-10-20T11:40:09.780Z,2.80
2022-10-20T11:42:50.304Z,1.60
2022-10-20T11:45:38.675Z,1.92
2022-10-20T11:48:23.958Z,2.42
2022-10-20T11:51:12.089Z,2.78
2022-10-20T11:54:03.480Z,2.22
2022-10-20T11:56:50.838Z,2.30
2022-10-20T11:59:21.680Z,3.15
2022-10-20T12:02:09.742Z,2.63
2022-10-20T12:05:05.361Z,2.45
2022-10-20T12:08:10.929Z,2.65
2022-10-20T12:10:59.075Z,2.10
2022-10-20T12:13:39.141Z,3.58
2022-10-20T12:16:07.026Z,2.30
2022-10-20T12:18:36.356Z,2.78
2022-10-20T12:21:10.562Z,2.10
2022-10-20T12:23:45.279Z,2.30
2022-10-20T12:26:34.372Z,2.28
2022-10-20T12:29:07.701Z,2.83
2022-10-20T12:32:13.381Z,1.75
2022-10-20T12:34:43.434Z,2.50
2022-10-20T12:37:24.847Z,2.33
2022-10-20T12:39:54.797Z,2.10
2022-10-20T12:42:53.381Z,2.63
2022-10-20T12:45:24.350Z,2.22
2022-10-20T12:47:59.258Z,2.63
2022-10-20T12:50:30.158Z,2.20
2022-10-20T12:53:09.683Z,2.42
2022-10-20T12:55:41.113Z,2.50
2022-10-20T12:58:18.467Z,2.38
2022-10-20T13:00:51.767Z,2.30
2022-10-20T13:03:39.531Z,2.40
2022-10-20T13:06:30.385Z,2.38
2022-10-20T13:09:04.506Z,2.40
2022-10-20T13:11:47.076Z,2.30
2022-10-20T13:14:15.472Z,2.55
2022-10-20T13:16:49.041Z,2.97
2022-10-20T13:19:45.777Z,2.28
2022-10-20T13:22:39.329Z,2.33
2022-10-20T13:25:31.664Z,2.47
2022-10-20T13:28:23.295Z,2.28
2022-10-20T13:31:12.435Z,2.40
2022-10-20T13:34:04.673Z,2.00
2022-10-20T13:37:02.491Z,1.65
2022-10-20T13:39:47.814Z,1.95
2022-10-20T13:42:18.563Z,2.00
2022-10-20T13:47:44.983Z,2.08
2022-10-20T13:50:32.537Z,1.98
2022-10-20T13:53:04.003Z,1.77
2022-10-20T14:12:27.185Z,2.97
2022-10-20T14:15:01.456Z,2.00
2022-10-20T14:17:30.294Z,1.90
2022-10-20T14:20:19.466Z,2.20
2022-10-20T14:22:49.942Z,2.42
2022-10-20T16:10:29.594Z,1.83
2022-10-20T16:12:58.511Z,1.58
2022-10-20T16:15:30.309Z,1.92
2022-10-20T16:17:59.213Z,1.70
2022-10-20T16:20:27.266Z,1.60
2022-10-20T16:22:55.370Z,1.50
2022-10-20T16:25:23.592Z,1.75
2022-10-20T16:27:52.002Z,1.67
2022-10-20T16:30:20.075Z,1.88
2022-10-20T16:32:50.955Z,1.50
2022-10-20T16:35:19.017Z,1.75
2022-10-20T16:37:46.904Z,1.80
2022-10-20T16:40:14.863Z,1.63
2022-10-20T16:42:42.798Z,1.77
2022-10-20T16:45:11.035Z,1.58
2022-10-20T16:47:39.606Z,1.98
2022-10-20T16:50:08.022Z,2.00
2022-10-20T16:52:35.864Z,2.13
2022-10-20T16:55:03.926Z,1.67
2022-10-20T16:57:38.591Z,1.70
2022-10-20T17:00:09.048Z,2.10
2022-10-20T17:02:37.981Z,1.92
2022-10-20T17:05:09.113Z,1.92
2022-10-20T17:07:38.146Z,2.00
2022-10-20T17:10:06.832Z,1.90
2022-10-20T17:12:34.616Z,2.13
2022-10-20T17:15:02.462Z,1.63
2022-10-20T17:17:30.177Z,2.25
2022-10-20T17:19:58.054Z,2.03
2022-10-20T17:22:26.070Z,2.10
2022-10-20T17:24:54.033Z,1.90
2022-10-20T17:27:21.713Z,1.83
2022-10-20T17:29:49.635Z,2.13
2022-10-20T17:32:18.393Z,1.95
2022-10-20T17:34:46.353Z,2.17
2022-10-20T17:37:14.203Z,1.83
2022-10-20T17:39:42.520Z,2.17
2022-10-20T17:42:10.301Z,1.67
2022-10-20T17:44:38.201Z,1.90
2022-10-20T17:47:06.031Z,2.03
2022-10-20T17:49:33.946Z,1.80
2022-10-20T17:52:02.000Z,1.90
2022-10-20T17:54:29.900Z,2.30
2022-10-20T17:56:57.571Z,1.90
2022-10-20T17:59:25.765Z,2.08
2022-10-20T18:01:53.701Z,1.83
2022-10-20T18:04:21.771Z,2.92
2022-10-20T18:06:49.592Z,2.22
2022-10-20T18:09:18.917Z,2.33
2022-10-20T18:11:49.073Z,2.20
2022-10-20T18:14:20.446Z,2.22
2022-10-20T18:16:48.566Z,1.73
2022-10-20T18:19:18.175Z,2.33
2022-10-20T18:21:46.501Z,2.35
2022-10-20T18:24:15.958Z,2.78
2022-10-20T18:26:44.782Z,2.53
2022-10-20T18:29:13.803Z,2.70
2022-10-20T18:31:43.088Z,2.45
2022-10-20T18:34:17.518Z,2.50
2022-10-20T18:36:46.308Z,2.60
2022-10-20T18:39:15.003Z,2.47
2022-10-20T18:41:44.264Z,2.63
2022-10-20T18:44:17.560Z,2.25
2022-10-20T18:47:00.970Z,2.35
2022-10-20T18:49:28.799Z,2.65
2022-10-20T18:51:56.805Z,3.25
2022-10-20T18:54:24.977Z,2.83
2022-10-20T18:56:55.392Z,2.92
2022-10-20T18:59:23.494Z,2.95
2022-10-20T19:01:51.455Z,2.67
2022-10-20T19:04:19.443Z,2.53
2022-10-20T19:06:48.300Z,2.83
2022-10-20T19:09:21.113Z,2.50
2022-10-20T19:14:18.409Z,2.67
2022-10-20T19:16:47.287Z,2.50
2022-10-20T19:19:15.850Z,2.25
2022-10-20T19:21:44.092Z,2.65
2022-10-20T19:24:14.864Z,2.75
2022-10-20T19:26:52.768Z,2.60
2022-10-20T19:29:30.286Z,3.05
2022-10-20T19:32:04.117Z,2.42
2022-10-20T19:34:35.445Z,2.65
2022-10-20T19:37:04.466Z,2.63
2022-10-20T19:39:34.893Z,3.20
2022-10-20T19:42:04.827Z,2.35
2022-10-20T19:44:32.950Z,2.50
2022-10-20T19:47:01.448Z,2.28
2022-10-20T19:49:29.589Z,2.67
2022-10-20T19:51:57.685Z,2.65
2022-10-20T19:54:25.921Z,3.58
2022-10-20T19:56:53.864Z,3.55
2022-10-20T19:59:21.796Z,2.88
2022-10-20T20:01:50.232Z,2.90
2022-10-20T20:04:18.293Z,2.63
2022-10-20T20:06:46.079Z,3.38
2022-10-20T20:09:16.005Z,2.40
2022-10-20T20:11:44.447Z,2.72
2022-10-20T20:14:15.675Z,2.70
2022-10-20T20:16:46.255Z,2.85
2022-10-20T20:19:16.096Z,2.63
2022-10-20T20:21:46.168Z,2.78
2022-10-20T20:24:14.392Z,3.25
2022-10-20T20:26:45.225Z,2.65
2022-10-20T20:29:13.285Z,3.20
2022-10-20T20:31:41.144Z,2.70
2022-10-20T20:34:09.079Z,2.95
2022-10-20T20:36:36.884Z,2.58
2022-10-20T20:39:04.794Z,3.28
2022-10-20T20:41:32.652Z,3.47
2022-10-20T20:44:04.260Z,3.40
2022-10-20T20:46:36.995Z,3.10
2022-10-20T20:49:05.357Z,3.20
2022-10-20T20:51:34.149Z,3.50
2022-10-20T20:54:03.073Z,3.42
2022-10-20T20:56:34.072Z,3.47
2022-10-20T20:59:01.895Z,2.75
2022-10-20T21:01:34.039Z,2.83
2022-10-20T21:04:04.284Z,2.83
2022-10-20T21:06:56.448Z,3.55
2022-10-20T21:09:20.705Z,3.15
2022-10-20T21:11:49.458Z,3.33
2022-10-20T21:14:17.532Z,2.80
2022-10-20T21:16:45.465Z,3.58
2022-10-20T21:19:13.208Z,2.83
2022-10-20T21:21:50.928Z,2.38
2022-10-20T21:24:19.323Z,3.03
2022-10-20T21:26:48.958Z,2.80
2022-10-20T21:29:16.746Z,3.00
2022-10-20T21:31:44.613Z,3.05
2022-10-20T21:34:12.642Z,2.67
2022-10-20T21:36:40.880Z,3.00
2022-10-20T21:39:11.773Z,2.97
2022-10-20T21:41:39.705Z,3.13
2022-10-20T21:44:08.561Z,3.42
2022-10-20T21:46:40.031Z,2.67
2022-10-20T21:51:47.932Z,2.83
2022-10-20T21:54:17.814Z,3.42
2022-10-20T21:56:47.384Z,3.10
2022-10-20T21:59:22.718Z,2.70
2022-10-20T22:01:51.608Z,2.60
2022-10-20T22:04:21.039Z,3.03
2022-10-20T22:06:48.900Z,3.20
2022-10-20T22:09:17.786Z,3.03
2022-10-20T22:11:50.298Z,3.20
2022-10-20T22:14:18.117Z,3.35
2022-10-20T22:16:45.808Z,2.78
2022-10-20T22:19:20.101Z,2.55
2022-10-20T22:21:49.655Z,2.97
2022-10-20T22:24:18.995Z,3.10
2022-10-20T22:26:47.486Z,3.10
2022-10-20T22:29:15.445Z,3.10
2022-10-20T22:31:43.596Z,2.83
2022-10-20T22:34:11.958Z,2.97
2022-10-20T22:36:40.987Z,3.38
2022-10-20T22:39:09.352Z,3.25
2022-10-20T22:41:37.702Z,3.00
2022-10-20T22:44:06.278Z,3.17
2022-10-20T22:46:34.482Z,2.75
2022-10-20T22:49:02.564Z,3.33
2022-10-20T22:51:30.560Z,3.35
2022-10-20T22:53:59.370Z,3.05
2022-10-20T22:56:27.464Z,3.20
2022-10-20T22:58:55.525Z,3.33
2022-10-20T23:01:26.259Z,3.17
2022-10-20T23:03:54.140Z,3.10
2022-10-20T23:06:24.612Z,2.97
2022-10-20T23:08:54.895Z,3.33
2022-10-20T23:11:23.197Z,3.42
2022-10-20T23:13:51.374Z,3.17
2022-10-20T23:16:20.205Z,3.15
2022-10-20T23:18:48.354Z,3.22
2022-10-20T23:21:16.365Z,3.28
2022-10-20T23:23:44.410Z,3.22
2022-10-20T23:26:13.068Z,3.25
2022-10-20T23:28:40.857Z,3.50
2022-10-20T23:31:14.268Z,3.42
2022-10-20T23:33:43.677Z,3.20
2022-10-20T23:36:12.484Z,3.05
2022-10-20T23:38:40.906Z,2.97
2022-10-20T23:41:09.166Z,2.92
2022-10-20T23:46:09.823Z,3.88
2022-10-20T23:48:37.632Z,3.00
2022-10-20T23:51:06.692Z,3.47
2022-10-20T23:53:35.188Z,3.38
2022-10-20T23:56:03.245Z,3.35
2022-10-20T23:58:31.081Z,3.25
